sensor_id;sensor_type;location;lat;lon;timestamp;P1;durP1;ratioP1;P2;durP2;ratioP2
58366;SDS011;57745;42.524;12.052;2022-07-15T00:02:09;1.42;;;1.33;;
58366;SDS011;57745;42.524;12.052;2022-07-15T00:04:35;3.20;;;1.50;;
58366;SDS011;57745;42.524;12.052;2022-07-15T00:07:01;1.73;;;1.30;;
58366;SDS011;57745;42.524;12.052;2022-07-15T00:09:27;1.75;;;1.38;;
58366;SDS011;57745;42.524;12.052;2022-07-15T00:12:11;1.58;;;1.48;;
58366;SDS011;57745;42.524;12.052;2022-07-15T00:14:37;1.98;;;1.27;;
58366;SDS011;57745;42.524;12.052;2022-07-15T00:17:03;1.60;;;1.50;;
58366;SDS011;57745;42.524;12.052;2022-07-15T00:19:31;1.50;;;1.40;;
58366;SDS011;57745;42.524;12.052;2022-07-15T00:21:57;2.17;;;1.42;;
58366;SDS011;57745;42.524;12.052;2022-07-15T00:24:22;2.25;;;1.40;;
58366;SDS011;57745;42.524;12.052;2022-07-15T00:26:48;2.30;;;1.40;;
58366;SDS011;57745;42.524;12.052;2022-07-15T00:29:13;1.98;;;1.40;;
58366;SDS011;57745;42.524;12.052;2022-07-15T00:31:39;1.38;;;1.13;;
58366;SDS011;57745;42.524;12.052;2022-07-15T00:34:04;1.50;;;1.40;;
58366;SDS011;57745;42.524;12.052;2022-07-15T00:36:30;1.70;;;1.30;;
58366;SDS011;57745;42.524;12.052;2022-07-15T00:38:55;2.38;;;1.50;;
58366;SDS011;57745;42.524;12.052;2022-07-15T00:41:22;2.28;;;1.58;;
58366;SDS011;57745;42.524;12.052;2022-07-15T00:43:48;2.20;;;1.65;;
58366;SDS011;57745;42.524;12.052;2022-07-15T00:46:17;2.85;;;1.55;;
58366;SDS011;57745;42.524;12.052;2022-07-15T00:48:43;3.85;;;1.65;;
58366;SDS011;57745;42.524;12.052;2022-07-15T00:51:09;2.22;;;1.40;;
58366;SDS011;57745;42.524;12.052;2022-07-15T00:53:35;2.35;;;1.70;;
58366;SDS011;57745;42.524;12.052;2022-07-15T00:56:03;2.63;;;1.67;;
58366;SDS011;57745;42.524;12.052;2022-07-15T00:58:32;3.88;;;1.67;;
58366;SDS011;57745;42.524;12.052;2022-07-15T01:01:00;2.45;;;1.80;;
58366;SDS011;57745;42.524;12.052;2022-07-15T01:03:26;4.95;;;1.70;;
58366;SDS011;57745;42.524;12.052;2022-07-15T01:05:55;2.05;;;1.80;;
58366;SDS011;57745;42.524;12.052;2022-07-15T01:08:22;2.08;;;1.73;;
58366;SDS011;57745;42.524;12.052;2022-07-15T01:10:48;1.77;;;1.65;;
58366;SDS011;57745;42.524;12.052;2022-07-15T01:13:15;2.33;;;1.60;;
58366;SDS011;57745;42.524;12.052;2022-07-15T01:15:42;2.13;;;1.63;;
58366;SDS011;57745;42.524;12.052;2022-07-15T01:18:07;1.83;;;1.60;;
58366;SDS011;57745;42.524;12.052;2022-07-15T01:20:33;2.10;;;1.90;;
58366;SDS011;57745;42.524;12.052;2022-07-15T01:22:59;2.97;;;1.70;;
58366;SDS011;57745;42.524;12.052;2022-07-15T01:25:25;1.85;;;1.70;;
58366;SDS011;57745;42.524;12.052;2022-07-15T01:27:51;2.53;;;1.70;;
58366;SDS011;57745;42.524;12.052;2022-07-15T01:30:17;2.53;;;1.52;;
58366;SDS011;57745;42.524;12.052;2022-07-15T01:32:42;2.17;;;1.75;;
58366;SDS011;57745;42.524;12.052;2022-07-15T01:35:08;1.90;;;1.70;;
58366;SDS011;57745;42.524;12.052;2022-07-15T01:37:34;1.92;;;1.73;;
58366;SDS011;57745;42.524;12.052;2022-07-15T01:39:59;2.20;;;1.80;;
58366;SDS011;57745;42.524;12.052;2022-07-15T01:42:25;2.47;;;1.80;;
58366;SDS011;57745;42.524;12.052;2022-07-15T01:44:50;2.72;;;1.83;;
58366;SDS011;57745;42.524;12.052;2022-07-15T01:47:16;2.38;;;1.90;;
58366;SDS011;57745;42.524;12.052;2022-07-15T01:49:41;1.98;;;1.60;;
58366;SDS011;57745;42.524;12.052;2022-07-15T01:52:07;3.67;;;1.80;;
58366;SDS011;57745;42.524;12.052;2022-07-15T01:54:34;2.13;;;1.60;;
58366;SDS011;57745;42.524;12.052;2022-07-15T01:57:00;2.45;;;1.90;;
58366;SDS011;57745;42.524;12.052;2022-07-15T01:59:25;2.65;;;2.03;;
58366;SDS011;57745;42.524;12.052;2022-07-15T02:01:52;2.63;;;2.03;;
58366;SDS011;57745;42.524;12.052;2022-07-15T02:04:19;2.00;;;1.80;;
58366;SDS011;57745;42.524;12.052;2022-07-15T02:06:46;1.77;;;1.63;;
58366;SDS011;57745;42.524;12.052;2022-07-15T02:09:12;4.38;;;2.05;;
58366;SDS011;57745;42.524;12.052;2022-07-15T02:11:38;2.03;;;1.83;;
58366;SDS011;57745;42.524;12.052;2022-07-15T02:14:03;2.72;;;1.90;;
58366;SDS011;57745;42.524;12.052;2022-07-15T02:16:29;2.25;;;2.05;;
58366;SDS011;57745;42.524;12.052;2022-07-15T02:18:56;2.50;;;2.30;;
58366;SDS011;57745;42.524;12.052;2022-07-15T02:21:22;2.08;;;1.92;;
58366;SDS011;57745;42.524;12.052;2022-07-15T02:23:48;2.70;;;2.05;;
58366;SDS011;57745;42.524;12.052;2022-07-15T02:26:13;1.98;;;1.70;;
58366;SDS011;57745;42.524;12.052;2022-07-15T02:28:39;3.60;;;2.30;;
58366;SDS011;57745;42.524;12.052;2022-07-15T02:31:05;2.42;;;1.77;;
58366;SDS011;57745;42.524;12.052;2022-07-15T02:33:31;1.83;;;1.73;;
58366;SDS011;57745;42.524;12.052;2022-07-15T02:35:57;2.38;;;1.80;;
58366;SDS011;57745;42.524;12.052;2022-07-15T02:38:22;2.45;;;1.83;;
58366;SDS011;57745;42.524;12.052;2022-07-15T02:40:48;2.58;;;2.10;;
58366;SDS011;57745;42.524;12.052;2022-07-15T02:43:13;2.17;;;1.98;;
58366;SDS011;57745;42.524;12.052;2022-07-15T02:45:39;2.13;;;1.92;;
58366;SDS011;57745;42.524;12.052;2022-07-15T02:48:05;2.10;;;1.70;;
58366;SDS011;57745;42.524;12.052;2022-07-15T02:50:31;2.13;;;1.92;;
58366;SDS011;57745;42.524;12.052;2022-07-15T02:52:56;1.67;;;1.58;;
58366;SDS011;57745;42.524;12.052;2022-07-15T02:55:22;3.08;;;2.25;;
58366;SDS011;57745;42.524;12.052;2022-07-15T02:57:48;2.38;;;1.80;;
58366;SDS011;57745;42.524;12.052;2022-07-15T03:00:14;2.20;;;1.70;;
58366;SDS011;57745;42.524;12.052;2022-07-15T03:02:44;2.00;;;1.90;;
58366;SDS011;57745;42.524;12.052;2022-07-15T03:05:10;2.22;;;2.03;;
58366;SDS011;57745;42.524;12.052;2022-07-15T03:07:37;2.30;;;1.77;;
58366;SDS011;57745;42.524;12.052;2022-07-15T03:10:03;2.78;;;1.90;;
58366;SDS011;57745;42.524;12.052;2022-07-15T03:12:29;2.13;;;1.85;;
58366;SDS011;57745;42.524;12.052;2022-07-15T03:14:55;2.13;;;1.83;;
58366;SDS011;57745;42.524;12.052;2022-07-15T03:17:21;2.35;;;2.00;;
58366;SDS011;57745;42.524;12.052;2022-07-15T03:19:46;2.25;;;1.85;;
58366;SDS011;57745;42.524;12.052;2022-07-15T03:22:12;1.77;;;1.67;;
58366;SDS011;57745;42.524;12.052;2022-07-15T03:24:37;2.63;;;2.00;;
58366;SDS011;57745;42.524;12.052;2022-07-15T03:27:02;2.20;;;2.00;;
58366;SDS011;57745;42.524;12.052;2022-07-15T03:29:28;2.13;;;1.90;;
58366;SDS011;57745;42.524;12.052;2022-07-15T03:31:54;2.05;;;1.90;;
58366;SDS011;57745;42.524;12.052;2022-07-15T03:34:20;2.78;;;1.90;;
58366;SDS011;57745;42.524;12.052;2022-07-15T03:36:46;2.25;;;1.85;;
58366;SDS011;57745;42.524;12.052;2022-07-15T03:39:12;2.05;;;1.80;;
58366;SDS011;57745;42.524;12.052;2022-07-15T03:41:37;3.65;;;2.20;;
58366;SDS011;57745;42.524;12.052;2022-07-15T03:44:04;2.10;;;1.90;;
58366;SDS011;57745;42.524;12.052;2022-07-15T03:46:30;2.75;;;2.20;;
58366;SDS011;57745;42.524;12.052;2022-07-15T03:48:56;1.95;;;1.75;;
58366;SDS011;57745;42.524;12.052;2022-07-15T03:51:22;2.47;;;1.83;;
58366;SDS011;57745;42.524;12.052;2022-07-15T03:53:56;2.00;;;1.80;;
58366;SDS011;57745;42.524;12.052;2022-07-15T03:56:23;2.17;;;1.98;;
58366;SDS011;57745;42.524;12.052;2022-07-15T03:58:49;2.88;;;1.90;;
58366;SDS011;57745;42.524;12.052;2022-07-15T04:01:14;3.80;;;2.30;;
58366;SDS011;57745;42.524;12.052;2022-07-15T04:03:40;4.25;;;2.17;;
58366;SDS011;57745;42.524;12.052;2022-07-15T04:06:05;2.95;;;1.98;;
58366;SDS011;57745;42.524;12.052;2022-07-15T04:08:31;3.00;;;2.13;;
58366;SDS011;57745;42.524;12.052;2022-07-15T04:10:56;2.15;;;1.80;;
58366;SDS011;57745;42.524;12.052;2022-07-15T04:13:22;3.45;;;2.83;;
58366;SDS011;57745;42.524;12.052;2022-07-15T04:15:47;2.45;;;2.13;;
58366;SDS011;57745;42.524;12.052;2022-07-15T04:18:13;4.13;;;2.40;;
58366;SDS011;57745;42.524;12.052;2022-07-15T04:20:38;3.05;;;2.35;;
58366;SDS011;57745;42.524;12.052;2022-07-15T04:23:04;3.00;;;2.28;;
58366;SDS011;57745;42.524;12.052;2022-07-15T04:25:29;2.95;;;2.20;;
58366;SDS011;57745;42.524;12.052;2022-07-15T04:27:55;2.40;;;2.20;;
58366;SDS011;57745;42.524;12.052;2022-07-15T04:30:21;2.28;;;2.08;;
58366;SDS011;57745;42.524;12.052;2022-07-15T04:32:46;2.88;;;2.20;;
58366;SDS011;57745;42.524;12.052;2022-07-15T04:35:12;3.00;;;2.22;;
58366;SDS011;57745;42.524;12.052;2022-07-15T04:37:37;2.20;;;1.98;;
58366;SDS011;57745;42.524;12.052;2022-07-15T04:40:03;3.70;;;2.30;;
58366;SDS011;57745;42.524;12.052;2022-07-15T04:42:31;4.93;;;2.33;;
58366;SDS011;57745;42.524;12.052;2022-07-15T04:44:57;2.40;;;1.90;;
58366;SDS011;57745;42.524;12.052;2022-07-15T04:47:22;3.03;;;2.28;;
58366;SDS011;57745;42.524;12.052;2022-07-15T04:49:48;4.07;;;2.22;;
58366;SDS011;57745;42.524;12.052;2022-07-15T04:52:32;5.50;;;2.63;;
58366;SDS011;57745;42.524;12.052;2022-07-15T04:54:57;5.68;;;2.70;;
58366;SDS011;57745;42.524;12.052;2022-07-15T04:57:24;3.45;;;2.25;;
58366;SDS011;57745;42.524;12.052;2022-07-15T05:00:03;3.10;;;2.00;;
58366;SDS011;57745;42.524;12.052;2022-07-15T05:05:32;3.53;;;2.20;;
58366;SDS011;57745;42.524;12.052;2022-07-15T05:08:23;4.82;;;2.33;;
58366;SDS011;57745;42.524;12.052;2022-07-15T05:10:50;2.78;;;2.08;;
58366;SDS011;57745;42.524;12.052;2022-07-15T05:13:16;4.15;;;2.30;;
58366;SDS011;57745;42.524;12.052;2022-07-15T05:15:41;6.35;;;2.40;;
58366;SDS011;57745;42.524;12.052;2022-07-15T05:18:07;2.25;;;2.05;;
58366;SDS011;57745;42.524;12.052;2022-07-15T05:20:33;2.30;;;2.10;;
58366;SDS011;57745;42.524;12.052;2022-07-15T05:22:58;4.93;;;2.67;;
58366;SDS011;57745;42.524;12.052;2022-07-15T05:25:24;3.03;;;2.22;;
58366;SDS011;57745;42.524;12.052;2022-07-15T05:27:50;4.43;;;2.60;;
58366;SDS011;57745;42.524;12.052;2022-07-15T05:30:16;4.70;;;2.50;;
58366;SDS011;57745;42.524;12.052;2022-07-15T05:32:42;5.03;;;2.40;;
58366;SDS011;57745;42.524;12.052;2022-07-15T05:35:08;3.08;;;2.45;;
58366;SDS011;57745;42.524;12.052;2022-07-15T05:37:37;3.63;;;3.05;;
58366;SDS011;57745;42.524;12.052;2022-07-15T05:40:04;3.60;;;2.55;;
58366;SDS011;57745;42.524;12.052;2022-07-15T05:42:32;4.78;;;2.35;;
58366;SDS011;57745;42.524;12.052;2022-07-15T05:44:57;2.78;;;2.53;;
58366;SDS011;57745;42.524;12.052;2022-07-15T05:47:23;3.83;;;2.40;;
58366;SDS011;57745;42.524;12.052;2022-07-15T05:49:48;5.47;;;2.70;;
58366;SDS011;57745;42.524;12.052;2022-07-15T05:52:14;4.95;;;2.47;;
58366;SDS011;57745;42.524;12.052;2022-07-15T05:54:40;3.60;;;2.40;;
58366;SDS011;57745;42.524;12.052;2022-07-15T05:57:05;4.15;;;2.63;;
58366;SDS011;57745;42.524;12.052;2022-07-15T05:59:31;4.65;;;2.30;;
58366;SDS011;57745;42.524;12.052;2022-07-15T06:01:57;3.95;;;2.30;;
58366;SDS011;57745;42.524;12.052;2022-07-15T06:04:23;2.72;;;2.13;;
58366;SDS011;57745;42.524;12.052;2022-07-15T06:06:52;2.60;;;2.40;;
58366;SDS011;57745;42.524;12.052;2022-07-15T06:09:18;4.93;;;2.75;;
58366;SDS011;57745;42.524;12.052;2022-07-15T06:11:44;4.68;;;2.47;;
58366;SDS011;57745;42.524;12.052;2022-07-15T06:14:09;2.92;;;2.20;;
58366;SDS011;57745;42.524;12.052;2022-07-15T06:16:36;5.80;;;3.13;;
58366;SDS011;57745;42.524;12.052;2022-07-15T06:19:02;2.50;;;2.20;;
58366;SDS011;57745;42.524;12.052;2022-07-15T06:21:28;4.03;;;2.47;;
58366;SDS011;57745;42.524;12.052;2022-07-15T06:23:55;2.45;;;2.13;;
58366;SDS011;57745;42.524;12.052;2022-07-15T06:26:20;4.53;;;2.42;;
58366;SDS011;57745;42.524;12.052;2022-07-15T06:28:46;2.40;;;2.17;;
58366;SDS011;57745;42.524;12.052;2022-07-15T06:31:11;3.88;;;2.47;;
58366;SDS011;57745;42.524;12.052;2022-07-15T06:33:37;4.53;;;2.35;;
58366;SDS011;57745;42.524;12.052;2022-07-15T06:36:02;2.80;;;2.45;;
58366;SDS011;57745;42.524;12.052;2022-07-15T06:38:29;5.45;;;2.70;;
58366;SDS011;57745;42.524;12.052;2022-07-15T06:40:57;6.43;;;2.10;;
58366;SDS011;57745;42.524;12.052;2022-07-15T06:43:22;5.70;;;2.60;;
58366;SDS011;57745;42.524;12.052;2022-07-15T06:45:48;2.58;;;2.28;;
58366;SDS011;57745;42.524;12.052;2022-07-15T06:48:14;3.42;;;2.25;;
58366;SDS011;57745;42.524;12.052;2022-07-15T06:50:39;5.28;;;2.67;;
58366;SDS011;57745;42.524;12.052;2022-07-15T06:53:05;2.65;;;2.00;;
58366;SDS011;57745;42.524;12.052;2022-07-15T06:55:30;3.22;;;2.20;;
58366;SDS011;57745;42.524;12.052;2022-07-15T06:57:56;4.35;;;2.40;;
58366;SDS011;57745;42.524;12.052;2022-07-15T07:00:21;3.63;;;2.20;;
58366;SDS011;57745;42.524;12.052;2022-07-15T07:02:47;4.70;;;2.30;;
58366;SDS011;57745;42.524;12.052;2022-07-15T07:05:12;5.00;;;2.58;;
58366;SDS011;57745;42.524;12.052;2022-07-15T07:07:38;4.30;;;2.20;;
58366;SDS011;57745;42.524;12.052;2022-07-15T07:10:04;7.65;;;2.67;;
58366;SDS011;57745;42.524;12.052;2022-07-15T07:12:30;6.18;;;2.90;;
58366;SDS011;57745;42.524;12.052;2022-07-15T07:14:55;7.82;;;2.45;;
58366;SDS011;57745;42.524;12.052;2022-07-15T07:17:21;4.05;;;2.25;;
58366;SDS011;57745;42.524;12.052;2022-07-15T07:19:46;3.83;;;2.38;;
58366;SDS011;57745;42.524;12.052;2022-07-15T07:22:12;5.88;;;2.50;;
58366;SDS011;57745;42.524;12.052;2022-07-15T07:24:37;3.60;;;2.20;;
58366;SDS011;57745;42.524;12.052;2022-07-15T07:27:03;4.15;;;1.92;;
58366;SDS011;57745;42.524;12.052;2022-07-15T07:29:30;5.68;;;2.28;;
58366;SDS011;57745;42.524;12.052;2022-07-15T07:31:55;2.60;;;2.38;;
58366;SDS011;57745;42.524;12.052;2022-07-15T07:34:21;2.83;;;2.53;;
58366;SDS011;57745;42.524;12.052;2022-07-15T07:36:46;2.90;;;2.55;;
58366;SDS011;57745;42.524;12.052;2022-07-15T07:39:13;4.15;;;2.60;;
58366;SDS011;57745;42.524;12.052;2022-07-15T07:41:39;4.05;;;2.53;;
58366;SDS011;57745;42.524;12.052;2022-07-15T07:44:06;2.58;;;2.20;;
58366;SDS011;57745;42.524;12.052;2022-07-15T07:46:32;3.58;;;2.22;;
58366;SDS011;57745;42.524;12.052;2022-07-15T07:48:58;4.10;;;2.35;;
58366;SDS011;57745;42.524;12.052;2022-07-15T07:51:24;2.80;;;2.08;;
58366;SDS011;57745;42.524;12.052;2022-07-15T07:53:49;2.70;;;2.47;;
58366;SDS011;57745;42.524;12.052;2022-07-15T07:56:15;2.65;;;2.28;;
58366;SDS011;57745;42.524;12.052;2022-07-15T07:58:40;3.67;;;2.10;;
58366;SDS011;57745;42.524;12.052;2022-07-15T08:01:06;9.02;;;2.58;;
58366;SDS011;57745;42.524;12.052;2022-07-15T08:03:32;3.97;;;2.55;;
58366;SDS011;57745;42.524;12.052;2022-07-15T08:05:58;2.25;;;2.05;;
58366;SDS011;57745;42.524;12.052;2022-07-15T08:08:23;2.42;;;2.22;;
58366;SDS011;57745;42.524;12.052;2022-07-15T08:10:50;3.38;;;2.28;;
58366;SDS011;57745;42.524;12.052;2022-07-15T08:13:17;7.97;;;2.80;;
58366;SDS011;57745;42.524;12.052;2022-07-15T08:15:44;7.25;;;2.90;;
58366;SDS011;57745;42.524;12.052;2022-07-15T08:18:11;4.28;;;2.13;;
58366;SDS011;57745;42.524;12.052;2022-07-15T08:20:36;3.22;;;2.30;;
58366;SDS011;57745;42.524;12.052;2022-07-15T08:23:03;2.30;;;1.98;;
58366;SDS011;57745;42.524;12.052;2022-07-15T08:25:30;3.42;;;2.10;;
58366;SDS011;57745;42.524;12.052;2022-07-15T08:27:58;2.40;;;2.20;;
58366;SDS011;57745;42.524;12.052;2022-07-15T08:30:24;3.17;;;1.90;;
58366;SDS011;57745;42.524;12.052;2022-07-15T08:32:50;3.35;;;2.20;;
58366;SDS011;57745;42.524;12.052;2022-07-15T08:35:15;2.10;;;1.90;;
58366;SDS011;57745;42.524;12.052;2022-07-15T08:37:41;3.17;;;2.13;;
58366;SDS011;57745;42.524;12.052;2022-07-15T08:40:07;3.03;;;2.38;;
58366;SDS011;57745;42.524;12.052;2022-07-15T08:42:37;2.50;;;2.30;;
58366;SDS011;57745;42.524;12.052;2022-07-15T08:45:11;2.42;;;2.15;;
58366;SDS011;57745;42.524;12.052;2022-07-15T08:47:42;4.50;;;2.20;;
58366;SDS011;57745;42.524;12.052;2022-07-15T08:50:10;5.15;;;2.10;;
58366;SDS011;57745;42.524;12.052;2022-07-15T08:52:38;2.80;;;2.05;;
58366;SDS011;57745;42.524;12.052;2022-07-15T08:55:04;2.30;;;2.10;;
58366;SDS011;57745;42.524;12.052;2022-07-15T08:57:31;4.15;;;2.13;;
58366;SDS011;57745;42.524;12.052;2022-07-15T08:59:57;3.70;;;2.05;;
58366;SDS011;57745;42.524;12.052;2022-07-15T09:02:23;2.25;;;2.05;;
58366;SDS011;57745;42.524;12.052;2022-07-15T09:10:20;2.00;;;1.90;;
58366;SDS011;57745;42.524;12.052;2022-07-15T09:12:48;4.25;;;2.25;;
58366;SDS011;57745;42.524;12.052;2022-07-15T09:15:31;2.97;;;2.05;;
58366;SDS011;57745;42.524;12.052;2022-07-15T09:18:02;2.67;;;1.90;;
58366;SDS011;57745;42.524;12.052;2022-07-15T09:20:31;1.92;;;1.80;;
58366;SDS011;57745;42.524;12.052;2022-07-15T09:22:57;2.22;;;2.05;;
58366;SDS011;57745;42.524;12.052;2022-07-15T09:25:24;5.70;;;2.05;;
58366;SDS011;57745;42.524;12.052;2022-07-15T09:27:52;1.80;;;1.70;;
58366;SDS011;57745;42.524;12.052;2022-07-15T09:36:03;1.90;;;1.80;;
58366;SDS011;57745;42.524;12.052;2022-07-15T09:38:45;2.15;;;1.95;;
58366;SDS011;57745;42.524;12.052;2022-07-15T09:41:28;3.08;;;2.25;;
58366;SDS011;57745;42.524;12.052;2022-07-15T09:46:25;1.95;;;1.80;;
58366;SDS011;57745;42.524;12.052;2022-07-15T09:48:52;2.00;;;1.90;;
58366;SDS011;57745;42.524;12.052;2022-07-15T09:51:18;2.53;;;2.10;;
58366;SDS011;57745;42.524;12.052;2022-07-15T09:53:44;1.98;;;1.88;;
58366;SDS011;57745;42.524;12.052;2022-07-15T09:56:12;3.95;;;1.95;;
58366;SDS011;57745;42.524;12.052;2022-07-15T09:58:41;1.70;;;1.60;;
58366;SDS011;57745;42.524;12.052;2022-07-15T10:01:08;2.00;;;1.73;;
58366;SDS011;57745;42.524;12.052;2022-07-15T10:03:36;2.67;;;1.95;;
58366;SDS011;57745;42.524;12.052;2022-07-15T10:06:03;2.03;;;1.73;;
58366;SDS011;57745;42.524;12.052;2022-07-15T10:08:29;2.83;;;2.20;;
58366;SDS011;57745;42.524;12.052;2022-07-15T10:10:56;2.40;;;2.20;;
58366;SDS011;57745;42.524;12.052;2022-07-15T10:13:39;3.15;;;1.80;;
58366;SDS011;57745;42.524;12.052;2022-07-15T10:18:45;4.35;;;2.28;;
58366;SDS011;57745;42.524;12.052;2022-07-15T10:24:11;2.47;;;1.75;;
58366;SDS011;57745;42.524;12.052;2022-07-15T10:27:04;3.63;;;2.33;;
58366;SDS011;57745;42.524;12.052;2022-07-15T10:29:40;2.20;;;2.00;;
58366;SDS011;57745;42.524;12.052;2022-07-15T10:32:06;3.15;;;2.28;;
58366;SDS011;57745;42.524;12.052;2022-07-15T10:34:33;2.83;;;2.53;;
58366;SDS011;57745;42.524;12.052;2022-07-15T10:37:10;3.42;;;2.22;;
58366;SDS011;57745;42.524;12.052;2022-07-15T10:39:50;2.50;;;2.22;;
58366;SDS011;57745;42.524;12.052;2022-07-15T10:42:22;2.90;;;2.42;;
58366;SDS011;57745;42.524;12.052;2022-07-15T10:44:50;3.25;;;2.40;;
58366;SDS011;57745;42.524;12.052;2022-07-15T10:47:25;3.38;;;2.78;;
58366;SDS011;57745;42.524;12.052;2022-07-15T10:49:51;2.78;;;2.40;;
58366;SDS011;57745;42.524;12.052;2022-07-15T10:52:18;2.92;;;2.70;;
58366;SDS011;57745;42.524;12.052;2022-07-15T10:57:19;3.00;;;2.67;;
58366;SDS011;57745;42.524;12.052;2022-07-15T10:59:49;4.03;;;3.13;;
58366;SDS011;57745;42.524;12.052;2022-07-15T11:02:18;3.63;;;3.33;;
58366;SDS011;57745;42.524;12.052;2022-07-15T11:04:45;3.65;;;3.20;;
58366;SDS011;57745;42.524;12.052;2022-07-15T11:09:46;3.72;;;3.13;;
58366;SDS011;57745;42.524;12.052;2022-07-15T11:12:20;3.17;;;2.88;;
58366;SDS011;57745;42.524;12.052;2022-07-15T11:17:24;3.47;;;3.17;;
58366;SDS011;57745;42.524;12.052;2022-07-15T11:19:54;3.40;;;3.10;;
58366;SDS011;57745;42.524;12.052;2022-07-15T11:22:20;3.60;;;3.30;;
58366;SDS011;57745;42.524;12.052;2022-07-15T11:24:47;3.97;;;3.67;;
58366;SDS011;57745;42.524;12.052;2022-07-15T11:27:13;4.78;;;3.75;;
58366;SDS011;57745;42.524;12.052;2022-07-15T11:30:01;4.15;;;3.83;;
58366;SDS011;57745;42.524;12.052;2022-07-15T11:32:29;4.40;;;4.00;;
58366;SDS011;57745;42.524;12.052;2022-07-15T11:34:57;4.35;;;3.95;;
58366;SDS011;57745;42.524;12.052;2022-07-15T11:37:25;4.80;;;3.85;;
58366;SDS011;57745;42.524;12.052;2022-07-15T11:42:59;3.97;;;3.65;;
58366;SDS011;57745;42.524;12.052;2022-07-15T11:45:44;5.70;;;4.10;;
58366;SDS011;57745;42.524;12.052;2022-07-15T11:48:11;5.25;;;4.72;;
58366;SDS011;57745;42.524;12.052;2022-07-15T11:50:38;5.80;;;4.35;;
58366;SDS011;57745;42.524;12.052;2022-07-15T11:53:15;5.55;;;4.10;;
58366;SDS011;57745;42.524;12.052;2022-07-15T11:56:13;8.05;;;4.60;;
58366;SDS011;57745;42.524;12.052;2022-07-15T12:01:01;6.93;;;3.90;;
58366;SDS011;57745;42.524;12.052;2022-07-15T12:03:32;9.02;;;3.67;;
58366;SDS011;57745;42.524;12.052;2022-07-15T12:06:00;6.35;;;3.95;;
58366;SDS011;57745;42.524;12.052;2022-07-15T12:08:42;4.88;;;3.35;;
58366;SDS011;57745;42.524;12.052;2022-07-15T12:11:19;4.72;;;3.08;;
58366;SDS011;57745;42.524;12.052;2022-07-15T12:13:56;5.55;;;3.53;;
58366;SDS011;57745;42.524;12.052;2022-07-15T12:16:29;3.70;;;3.00;;
58366;SDS011;57745;42.524;12.052;2022-07-15T12:18:56;5.07;;;3.03;;
58366;SDS011;57745;42.524;12.052;2022-07-15T12:21:23;4.20;;;2.92;;
58366;SDS011;57745;42.524;12.052;2022-07-15T12:26:38;4.65;;;2.78;;
58366;SDS011;57745;42.524;12.052;2022-07-15T12:29:24;4.25;;;3.00;;
58366;SDS011;57745;42.524;12.052;2022-07-15T12:31:52;2.75;;;2.55;;
58366;SDS011;57745;42.524;12.052;2022-07-15T12:34:19;3.35;;;2.70;;
58366;SDS011;57745;42.524;12.052;2022-07-15T12:36:54;5.28;;;2.90;;
58366;SDS011;57745;42.524;12.052;2022-07-15T12:39:20;7.30;;;3.22;;
58366;SDS011;57745;42.524;12.052;2022-07-15T12:41:56;2.85;;;2.60;;
58366;SDS011;57745;42.524;12.052;2022-07-15T12:44:24;5.20;;;2.92;;
58366;SDS011;57745;42.524;12.052;2022-07-15T12:46:51;2.90;;;2.60;;
58366;SDS011;57745;42.524;12.052;2022-07-15T12:49:45;5.68;;;2.70;;
58366;SDS011;57745;42.524;12.052;2022-07-15T12:52:37;3.63;;;2.95;;
58366;SDS011;57745;42.524;12.052;2022-07-15T12:55:20;3.15;;;2.83;;
58366;SDS011;57745;42.524;12.052;2022-07-15T12:57:48;3.70;;;2.60;;
58366;SDS011;57745;42.524;12.052;2022-07-15T13:00:18;4.20;;;2.60;;
58366;SDS011;57745;42.524;12.052;2022-07-15T13:02:59;3.30;;;2.72;;
58366;SDS011;57745;42.524;12.052;2022-07-15T13:05:34;3.55;;;2.65;;
58366;SDS011;57745;42.524;12.052;2022-07-15T13:08:00;2.95;;;2.75;;
58366;SDS011;57745;42.524;12.052;2022-07-15T13:10:27;5.43;;;2.83;;
58366;SDS011;57745;42.524;12.052;2022-07-15T13:12:53;4.03;;;2.92;;
58366;SDS011;57745;42.524;12.052;2022-07-15T13:15:19;3.22;;;2.90;;
58366;SDS011;57745;42.524;12.052;2022-07-15T13:17:44;4.20;;;2.80;;
58366;SDS011;57745;42.524;12.052;2022-07-15T13:20:10;4.15;;;2.65;;
58366;SDS011;57745;42.524;12.052;2022-07-15T13:22:37;4.97;;;2.92;;
58366;SDS011;57745;42.524;12.052;2022-07-15T13:25:02;4.10;;;3.17;;
58366;SDS011;57745;42.524;12.052;2022-07-15T13:27:28;4.30;;;3.10;;
58366;SDS011;57745;42.524;12.052;2022-07-15T13:29:54;5.65;;;2.78;;
58366;SDS011;57745;42.524;12.052;2022-07-15T13:32:19;3.50;;;2.80;;
58366;SDS011;57745;42.524;12.052;2022-07-15T13:34:46;3.55;;;2.63;;
58366;SDS011;57745;42.524;12.052;2022-07-15T13:37:12;3.28;;;2.90;;
58366;SDS011;57745;42.524;12.052;2022-07-15T13:39:38;2.60;;;2.40;;
58366;SDS011;57745;42.524;12.052;2022-07-15T13:42:03;3.13;;;2.63;;
58366;SDS011;57745;42.524;12.052;2022-07-15T13:44:29;4.32;;;2.80;;
58366;SDS011;57745;42.524;12.052;2022-07-15T13:46:54;3.85;;;2.80;;
58366;SDS011;57745;42.524;12.052;2022-07-15T13:49:20;3.78;;;2.80;;
58366;SDS011;57745;42.524;12.052;2022-07-15T13:52:05;3.38;;;2.38;;
58366;SDS011;57745;42.524;12.052;2022-07-15T13:54:31;3.33;;;2.50;;
58366;SDS011;57745;42.524;12.052;2022-07-15T13:56:57;5.40;;;2.70;;
58366;SDS011;57745;42.524;12.052;2022-07-15T13:59:23;3.85;;;2.58;;
58366;SDS011;57745;42.524;12.052;2022-07-15T14:01:49;3.78;;;2.60;;
58366;SDS011;57745;42.524;12.052;2022-07-15T14:04:16;4.57;;;2.53;;
58366;SDS011;57745;42.524;12.052;2022-07-15T14:06:42;3.05;;;2.75;;
58366;SDS011;57745;42.524;12.052;2022-07-15T14:09:07;3.10;;;2.50;;
58366;SDS011;57745;42.524;12.052;2022-07-15T14:11:33;3.22;;;2.70;;
58366;SDS011;57745;42.524;12.052;2022-07-15T14:13:59;3.15;;;2.20;;
58366;SDS011;57745;42.524;12.052;2022-07-15T14:16:25;2.97;;;2.72;;
58366;SDS011;57745;42.524;12.052;2022-07-15T14:18:50;3.80;;;2.47;;
58366;SDS011;57745;42.524;12.052;2022-07-15T14:21:16;2.88;;;2.22;;
58366;SDS011;57745;42.524;12.052;2022-07-15T14:23:43;4.15;;;2.15;;
58366;SDS011;57745;42.524;12.052;2022-07-15T14:26:09;3.65;;;2.42;;
58366;SDS011;57745;42.524;12.052;2022-07-15T14:28:35;4.22;;;2.55;;
58366;SDS011;57745;42.524;12.052;2022-07-15T14:31:02;5.38;;;2.95;;
58366;SDS011;57745;42.524;12.052;2022-07-15T14:33:29;3.10;;;2.80;;
58366;SDS011;57745;42.524;12.052;2022-07-15T14:35:54;4.82;;;2.47;;
58366;SDS011;57745;42.524;12.052;2022-07-15T14:38:19;3.05;;;2.70;;
58366;SDS011;57745;42.524;12.052;2022-07-15T14:40:45;3.03;;;2.40;;
58366;SDS011;57745;42.524;12.052;2022-07-15T14:43:10;5.20;;;2.65;;
58366;SDS011;57745;42.524;12.052;2022-07-15T14:45:36;3.10;;;2.65;;
58366;SDS011;57745;42.524;12.052;2022-07-15T14:48:01;4.30;;;2.70;;
58366;SDS011;57745;42.524;12.052;2022-07-15T14:50:27;2.58;;;2.28;;
58366;SDS011;57745;42.524;12.052;2022-07-15T14:52:52;3.20;;;2.90;;
58366;SDS011;57745;42.524;12.052;2022-07-15T14:55:18;5.78;;;2.65;;
58366;SDS011;57745;42.524;12.052;2022-07-15T14:57:43;3.22;;;2.55;;
58366;SDS011;57745;42.524;12.052;2022-07-15T15:00:09;3.42;;;2.15;;
58366;SDS011;57745;42.524;12.052;2022-07-15T15:02:35;4.65;;;2.58;;
58366;SDS011;57745;42.524;12.052;2022-07-15T15:05:00;2.88;;;2.67;;
58366;SDS011;57745;42.524;12.052;2022-07-15T15:07:26;2.97;;;2.50;;
58366;SDS011;57745;42.524;12.052;2022-07-15T15:09:51;2.85;;;2.15;;
58366;SDS011;57745;42.524;12.052;2022-07-15T15:12:17;2.78;;;2.50;;
58366;SDS011;57745;42.524;12.052;2022-07-15T15:14:42;2.75;;;2.30;;